createdAt,value
2019-03-21T00:00:38.329Z,24.87
2019-03-21T00:03:08.435Z,25.13
2019-03-21T00:05:38.848Z,25.12
2019-03-21T00:08:10.504Z,25.12
2019-03-21T00:11:21.295Z,25.12
2019-03-21T00:13:52.788Z,25.12
2019-03-21T00:16:22.875Z,25.12
2019-03-21T00:18:53.011Z,25.12
2019-03-21T00:21:23.054Z,25.12
2019-03-21T00:23:53.244Z,25.11
2019-03-21T00:26:23.878Z,25.11
2019-03-21T00:28:53.992Z,25.12
2019-03-21T00:31:24.071Z,25.11
2019-03-21T00:33:54.157Z,25.11
2019-03-21T00:36:24.252Z,25.12
2019-03-21T00:38:54.488Z,25.11
2019-03-21T00:41:24.575Z,25.12
2019-03-21T00:43:54.739Z,25.11
2019-03-21T00:46:24.732Z,25.11
2019-03-21T00:48:54.786Z,25.11
2019-03-21T00:51:24.935Z,25.12
2019-03-21T00:53:55.002Z,25.12
2019-03-21T00:56:25.012Z,25.11
2019-03-21T00:58:58.426Z,25.11
2019-03-21T01:01:28.554Z,25.11
2019-03-21T01:03:58.692Z,25.11
2019-03-21T01:06:28.898Z,25.11
2019-03-21T01:08:58.902Z,25.10
2019-03-21T01:11:29.017Z,25.10
2019-03-21T01:13:59.080Z,25.11
2019-03-21T01:16:29.196Z,25.10
2019-03-21T01:18:59.232Z,25.11
2019-03-21T01:21:29.265Z,25.10
2019-03-21T01:23:59.370Z,25.10
2019-03-21T01:26:29.500Z,25.12
2019-03-21T01:28:59.506Z,25.12
2019-03-21T01:31:29.602Z,25.12
2019-03-21T01:33:59.727Z,25.11
2019-03-21T01:36:29.767Z,25.12
2019-03-21T01:38:59.835Z,25.12
2019-03-21T01:41:29.965Z,25.12
2019-03-21T01:44:00.002Z,25.11
2019-03-21T01:46:30.016Z,25.11
2019-03-21T01:49:00.081Z,25.11
2019-03-21T01:51:30.210Z,25.11
2019-03-21T01:54:00.227Z,25.11
2019-03-21T01:56:31.236Z,25.11
2019-03-21T01:59:01.408Z,25.11
2019-03-21T02:01:31.513Z,25.10
2019-03-21T02:04:01.527Z,25.11
2019-03-21T02:06:31.548Z,25.12
2019-03-21T02:09:01.607Z,25.11
2019-03-21T02:11:31.617Z,25.12
2019-03-21T02:14:01.627Z,25.13
2019-03-21T02:16:31.697Z,25.12
2019-03-21T02:19:01.725Z,25.13
2019-03-21T02:21:31.732Z,25.12
2019-03-21T02:24:01.860Z,25.13
2019-03-21T02:26:32.027Z,25.13
2019-03-21T02:29:02.335Z,25.13
2019-03-21T02:31:32.350Z,25.13
2019-03-21T02:34:02.358Z,25.14
2019-03-21T02:36:32.457Z,25.13
2019-03-21T02:39:04.190Z,25.14
2019-03-21T02:41:34.265Z,25.14
2019-03-21T02:44:04.347Z,25.14
2019-03-21T02:46:34.412Z,25.15
2019-03-21T02:49:04.476Z,25.15
2019-03-21T02:51:34.533Z,25.14
2019-03-21T02:54:04.825Z,25.14
2019-03-21T02:56:34.845Z,25.14
2019-03-21T02:59:05.455Z,25.14
2019-03-21T03:01:35.544Z,25.14
2019-03-21T03:04:05.618Z,25.14
2019-03-21T03:06:35.728Z,25.14
2019-03-21T03:09:08.365Z,25.14
2019-03-21T03:11:38.722Z,25.14
2019-03-21T03:14:08.791Z,25.16
2019-03-21T03:16:38.771Z,25.15
2019-03-21T03:19:08.986Z,25.15
2019-03-21T03:21:39.028Z,25.14
2019-03-21T03:24:10.004Z,25.14
2019-03-21T03:26:42.841Z,25.17
2019-03-21T03:29:12.906Z,25.15
2019-03-21T03:31:42.967Z,25.16
2019-03-21T03:34:13.020Z,25.15
2019-03-21T03:36:43.143Z,25.16
2019-03-21T03:39:13.283Z,25.15
2019-03-21T03:41:43.282Z,25.16
2019-03-21T03:44:13.366Z,25.16
2019-03-21T03:46:43.515Z,25.16
2019-03-21T03:49:13.508Z,25.16
2019-03-21T03:51:43.621Z,25.15
2019-03-21T03:54:13.657Z,25.16
2019-03-21T03:56:43.765Z,25.18
2019-03-21T03:59:13.841Z,25.18
2019-03-21T04:01:44.160Z,25.18
2019-03-21T04:04:14.199Z,25.16
2019-03-21T04:06:44.294Z,25.18
2019-03-21T04:09:14.554Z,25.18
2019-03-21T04:11:44.645Z,25.18
2019-03-21T04:14:14.685Z,25.18
2019-03-21T04:16:44.863Z,25.18
2019-03-21T04:19:15.454Z,25.18
2019-03-21T04:21:45.480Z,25.18
2019-03-21T04:24:15.875Z,25.18
2019-03-21T04:26:46.048Z,25.18
2019-03-21T04:29:16.126Z,25.18
2019-03-21T04:31:46.147Z,25.18
2019-03-21T04:34:16.278Z,25.19
2019-03-21T04:36:46.299Z,25.18
2019-03-21T04:39:16.312Z,25.18
2019-03-21T04:41:46.559Z,25.17
2019-03-21T04:44:16.619Z,25.16
2019-03-21T04:46:47.034Z,25.16
2019-03-21T04:49:17.255Z,25.16
2019-03-21T04:51:48.256Z,25.15
2019-03-21T04:54:18.297Z,25.16
2019-03-21T04:56:48.378Z,25.15
2019-03-21T04:59:18.385Z,25.15
2019-03-21T05:01:50.685Z,25.14
2019-03-21T05:04:20.743Z,25.14
2019-03-21T05:06:50.910Z,25.15
2019-03-21T05:09:21.632Z,25.15
2019-03-21T05:11:51.670Z,25.14
2019-03-21T05:14:21.717Z,25.15
2019-03-21T05:16:51.847Z,25.15
2019-03-21T05:19:21.985Z,25.16
2019-03-21T05:21:52.146Z,25.16
2019-03-21T05:24:22.175Z,25.16
2019-03-21T05:26:52.211Z,25.16
2019-03-21T05:29:22.254Z,25.17
2019-03-21T05:31:53.294Z,25.17
2019-03-21T05:34:23.668Z,25.18
2019-03-21T05:36:54.039Z,25.18
2019-03-21T05:39:24.125Z,25.20
2019-03-21T05:41:54.181Z,25.21
2019-03-21T05:44:46.874Z,25.21
2019-03-21T05:47:16.978Z,25.23
2019-03-21T05:49:47.163Z,25.23
2019-03-21T05:52:17.390Z,25.24
2019-03-21T05:54:47.394Z,25.25
2019-03-21T05:57:17.444Z,25.25
2019-03-21T05:59:47.715Z,25.26
2019-03-21T06:02:17.987Z,25.27
2019-03-21T06:04:48.109Z,25.28
2019-03-21T06:07:25.373Z,25.28
2019-03-21T06:09:55.512Z,25.28
2019-03-21T06:12:25.798Z,25.28
2019-03-21T06:14:58.966Z,25.28
2019-03-21T06:17:31.951Z,25.28
2019-03-21T06:20:34.098Z,25.28
2019-03-21T06:23:20.099Z,25.27
2019-03-21T06:26:13.445Z,25.26
2019-03-21T06:28:43.427Z,25.26
2019-03-21T06:31:13.481Z,25.24
2019-03-21T06:33:43.600Z,25.24
2019-03-21T06:36:13.711Z,25.23
2019-03-21T06:38:43.786Z,25.23
2019-03-21T06:41:13.944Z,25.23
2019-03-21T06:43:43.957Z,25.24
2019-03-21T06:46:16.497Z,25.24
2019-03-21T06:48:46.678Z,25.26
2019-03-21T06:51:16.847Z,25.26
2019-03-21T06:53:46.894Z,25.28
2019-03-21T06:56:17.027Z,25.29
2019-03-21T06:58:47.007Z,25.34
2019-03-21T07:01:17.057Z,25.39
2019-03-21T07:03:48.037Z,25.45
2019-03-21T07:06:18.253Z,25.49
2019-03-21T07:08:48.320Z,25.49
2019-03-21T07:11:18.427Z,25.49
2019-03-21T07:13:48.553Z,25.47
2019-03-21T07:16:21.700Z,25.47
2019-03-21T07:18:51.836Z,25.49
2019-03-21T07:21:21.976Z,25.52
2019-03-21T07:23:53.162Z,25.56
2019-03-21T07:26:23.318Z,25.59
2019-03-21T07:28:53.471Z,25.61
2019-03-21T07:31:23.546Z,25.62
2019-03-21T07:33:53.686Z,25.62
2019-03-21T07:36:26.415Z,25.62
2019-03-21T07:38:56.639Z,25.62
2019-03-21T07:41:26.740Z,25.62
2019-03-21T07:43:56.963Z,25.62
2019-03-21T07:46:27.149Z,25.63
2019-03-21T07:48:57.466Z,25.63
2019-03-21T07:51:27.588Z,25.62
2019-03-21T07:53:57.662Z,25.61
2019-03-21T07:56:27.680Z,25.60
2019-03-21T07:59:02.836Z,25.59
2019-03-21T08:01:32.889Z,25.61
2019-03-21T08:04:03.367Z,25.62
2019-03-21T08:06:33.623Z,25.63
2019-03-21T08:09:04.479Z,25.65
2019-03-21T08:11:34.570Z,25.66
2019-03-21T08:14:04.709Z,25.68
2019-03-21T08:16:34.812Z,25.69
2019-03-21T08:19:04.801Z,25.70
2019-03-21T08:21:34.947Z,25.72
2019-03-21T08:24:05.263Z,25.74
2019-03-21T08:26:35.306Z,25.74
2019-03-21T08:29:05.351Z,25.76
2019-03-21T08:31:35.398Z,25.79
2019-03-21T08:34:05.461Z,25.80
2019-03-21T08:36:35.488Z,25.83
2019-03-21T08:39:08.301Z,25.84
2019-03-21T08:41:38.794Z,25.85
2019-03-21T08:44:09.004Z,25.87
2019-03-21T08:46:39.134Z,25.87
2019-03-21T08:49:09.151Z,25.89
2019-03-21T08:51:39.257Z,25.90
2019-03-21T08:54:09.452Z,25.91
2019-03-21T08:56:39.550Z,25.91
2019-03-21T08:59:09.682Z,25.91
2019-03-21T09:01:39.735Z,25.92
2019-03-21T09:04:09.750Z,25.93
2019-03-21T09:06:39.854Z,25.92
2019-03-21T09:09:11.677Z,25.93
2019-03-21T09:11:42.574Z,25.93
2019-03-21T09:14:12.629Z,25.94
2019-03-21T09:16:42.756Z,25.95
2019-03-21T09:19:12.862Z,25.94
2019-03-21T09:21:42.876Z,25.96
2019-03-21T09:24:13.032Z,25.96
2019-03-21T09:26:44.151Z,25.96
2019-03-21T09:29:14.909Z,25.97
2019-03-21T09:31:45.416Z,25.98
2019-03-21T09:34:15.483Z,25.98
2019-03-21T09:36:45.570Z,25.97
2019-03-21T09:39:15.679Z,25.78
2019-03-21T09:41:45.747Z,25.98
2019-03-21T09:44:23.489Z,25.98
2019-03-21T09:46:53.909Z,25.97
2019-03-21T09:49:24.134Z,25.96
2019-03-21T09:51:54.265Z,25.95
2019-03-21T09:54:24.381Z,25.92
2019-03-21T09:56:54.448Z,25.91
2019-03-21T09:59:25.880Z,25.89
2019-03-21T10:01:56.033Z,25.89
2019-03-21T10:04:26.163Z,25.89
2019-03-21T10:06:56.218Z,25.89
2019-03-21T10:09:26.307Z,25.88
2019-03-21T10:11:56.361Z,25.87
2019-03-21T10:14:26.752Z,25.88
2019-03-21T10:16:56.926Z,25.88
2019-03-21T10:19:27.070Z,25.88
2019-03-21T10:21:57.094Z,25.88
2019-03-21T10:24:27.169Z,25.86
2019-03-21T10:26:57.328Z,25.85
2019-03-21T10:29:27.424Z,25.84
2019-03-21T10:31:57.508Z,25.83
2019-03-21T10:34:27.539Z,25.86
2019-03-21T10:36:57.594Z,25.87
2019-03-21T10:39:27.708Z,25.88
2019-03-21T10:41:57.748Z,25.88
2019-03-21T10:44:27.847Z,25.88
2019-03-21T10:46:57.987Z,25.89
2019-03-21T10:49:28.122Z,25.92
2019-03-21T10:51:58.418Z,25.94
2019-03-21T10:54:28.416Z,25.96
2019-03-21T10:56:58.502Z,25.98
2019-03-21T10:59:28.614Z,25.99
2019-03-21T11:02:06.931Z,25.99
2019-03-21T11:04:30.623Z,26.01
2019-03-21T11:07:02.030Z,26.02
2019-03-21T11:09:32.198Z,26.02
2019-03-21T11:12:02.270Z,26.02
2019-03-21T11:14:32.744Z,26.02
2019-03-21T11:17:02.906Z,26.03
2019-03-21T11:19:32.936Z,26.04
2019-03-21T11:22:06.524Z,26.05
2019-03-21T11:24:36.636Z,26.05
2019-03-21T11:27:06.651Z,26.06
2019-03-21T11:29:36.772Z,26.06
2019-03-21T11:32:06.801Z,26.08
2019-03-21T11:34:36.870Z,26.07
2019-03-21T11:37:06.941Z,26.09
2019-03-21T11:39:37.024Z,26.08
2019-03-21T11:42:07.291Z,26.09
2019-03-21T11:44:37.332Z,26.09
2019-03-21T11:47:07.452Z,26.10
2019-03-21T11:49:37.573Z,26.10
2019-03-21T11:52:17.790Z,26.09
2019-03-21T11:54:39.381Z,26.09
2019-03-21T11:57:09.466Z,26.08
2019-03-21T11:59:51.128Z,26.07
2019-03-21T12:02:11.410Z,26.06
2019-03-21T12:04:41.433Z,26.04
2019-03-21T12:07:11.527Z,26.01
2019-03-21T12:09:41.554Z,25.99
2019-03-21T12:12:11.666Z,25.97
2019-03-21T12:14:41.674Z,25.95
2019-03-21T12:17:12.865Z,25.91
2019-03-21T12:19:43.073Z,25.89
2019-03-21T12:22:13.113Z,25.88
2019-03-21T12:24:43.110Z,25.86
2019-03-21T12:27:13.213Z,25.86
2019-03-21T12:29:43.212Z,25.84
2019-03-21T12:32:13.304Z,25.83
2019-03-21T12:34:43.351Z,25.81
2019-03-21T12:37:13.370Z,25.78
2019-03-21T12:39:43.457Z,25.75
2019-03-21T12:42:13.529Z,25.72
2019-03-21T12:44:43.577Z,25.72
2019-03-21T12:47:13.601Z,25.70
2019-03-21T12:49:43.712Z,25.69
2019-03-21T12:52:13.690Z,25.69
2019-03-21T12:54:43.735Z,25.68
2019-03-21T12:57:13.763Z,25.67
2019-03-21T12:59:43.771Z,25.67
2019-03-21T13:02:13.788Z,25.66
2019-03-21T13:04:44.065Z,25.66
2019-03-21T13:07:14.788Z,25.66
2019-03-21T13:09:45.570Z,25.66
2019-03-21T13:12:15.581Z,25.68
2019-03-21T13:14:45.674Z,25.70
2019-03-21T13:17:15.844Z,25.72
2019-03-21T13:19:46.271Z,25.73
2019-03-21T13:22:16.346Z,25.75
2019-03-21T13:24:46.341Z,25.75
2019-03-21T13:27:16.357Z,25.76
2019-03-21T13:29:46.406Z,25.76
2019-03-21T13:32:16.596Z,25.76
2019-03-21T13:34:46.650Z,25.78
2019-03-21T13:37:16.683Z,25.78
2019-03-21T13:39:46.746Z,25.78
2019-03-21T13:42:16.747Z,25.77
2019-03-21T13:44:46.807Z,25.78
2019-03-21T13:47:17.233Z,25.78
2019-03-21T13:49:51.692Z,25.79
2019-03-21T13:52:21.746Z,25.77
2019-03-21T13:54:51.779Z,25.74
2019-03-21T13:57:21.808Z,25.71
2019-03-21T13:59:51.860Z,25.69
2019-03-21T14:02:21.913Z,25.67
2019-03-21T14:04:52.080Z,25.66
2019-03-21T14:07:22.144Z,25.64
2019-03-21T14:09:52.234Z,25.63
2019-03-21T14:12:22.260Z,25.62
2019-03-21T14:14:52.342Z,25.60
2019-03-21T14:17:22.825Z,25.59
2019-03-21T14:19:52.965Z,25.57
2019-03-21T14:22:22.994Z,25.56
2019-03-21T14:24:53.023Z,25.56
2019-03-21T14:27:23.091Z,25.54
2019-03-21T14:30:01.183Z,25.54
2019-03-21T14:32:25.004Z,25.54
2019-03-21T14:37:24.131Z,25.56
2019-03-21T14:39:54.609Z,25.55
2019-03-21T14:42:24.613Z,25.54
2019-03-21T14:44:54.721Z,25.54
2019-03-21T14:47:35.822Z,25.54
2019-03-21T14:49:56.778Z,25.53
2019-03-21T14:52:26.849Z,25.52
2019-03-21T14:54:58.836Z,25.51
2019-03-21T14:57:28.621Z,25.52
2019-03-21T14:59:58.783Z,25.50
2019-03-21T15:02:28.845Z,25.49
2019-03-21T15:05:01.030Z,25.46
2019-03-21T15:07:31.130Z,25.44
2019-03-21T15:10:01.212Z,25.40
2019-03-21T15:12:31.374Z,25.38
2019-03-21T15:15:01.653Z,25.36
2019-03-21T15:17:31.845Z,25.34
2019-03-21T15:20:01.900Z,25.32
2019-03-21T15:22:31.924Z,25.31
2019-03-21T15:25:02.059Z,25.31
2019-03-21T15:27:32.116Z,25.31
2019-03-21T15:30:02.383Z,25.28
2019-03-21T15:32:32.401Z,25.28
2019-03-21T15:35:02.746Z,25.27
2019-03-21T15:37:32.867Z,25.26
2019-03-21T15:40:03.033Z,25.23
2019-03-21T15:42:33.375Z,25.23
2019-03-21T15:45:20.581Z,25.23
2019-03-21T15:47:35.339Z,25.22
2019-03-21T15:50:06.357Z,25.22
2019-03-21T15:52:36.558Z,25.21
2019-03-21T15:55:07.212Z,25.19
2019-03-21T15:57:37.288Z,25.18
2019-03-21T16:00:09.056Z,25.18
2019-03-21T16:02:39.141Z,25.14
2019-03-21T16:05:09.829Z,25.14
2019-03-21T16:07:40.000Z,25.12
2019-03-21T16:10:10.071Z,25.11
2019-03-21T16:12:40.270Z,25.10
2019-03-21T16:15:10.867Z,25.09
2019-03-21T16:17:41.075Z,25.09
2019-03-21T16:20:11.439Z,25.08
2019-03-21T16:22:41.588Z,25.07
2019-03-21T16:25:11.841Z,25.06
2019-03-21T16:27:41.935Z,25.05
2019-03-21T16:30:12.236Z,25.05
2019-03-21T16:32:42.403Z,25.04
2019-03-21T16:35:12.828Z,25.02
2019-03-21T16:37:42.945Z,25.02
2019-03-21T16:40:13.371Z,25.01
2019-03-21T16:42:43.511Z,25.01
2019-03-21T16:45:16.431Z,25.01
2019-03-21T16:47:46.778Z,24.99
2019-03-21T16:50:16.924Z,24.98
2019-03-21T16:52:46.945Z,24.98
2019-03-21T16:55:17.188Z,24.96
2019-03-21T16:57:47.226Z,24.94
2019-03-21T17:00:17.989Z,24.92
2019-03-21T17:02:48.265Z,24.91
2019-03-21T17:05:18.511Z,24.91
2019-03-21T17:07:48.704Z,24.90
2019-03-21T17:10:18.943Z,24.90
2019-03-21T17:12:49.045Z,24.88
2019-03-21T17:15:19.974Z,24.87
2019-03-21T17:17:50.044Z,24.86
2019-03-21T17:20:20.318Z,24.85
2019-03-21T17:22:50.339Z,24.84
2019-03-21T17:25:20.500Z,24.83
2019-03-21T17:27:50.567Z,24.83
2019-03-21T17:30:20.846Z,24.82
2019-03-21T17:32:50.976Z,24.83
2019-03-21T17:35:21.169Z,24.83
2019-03-21T17:37:51.269Z,24.84
2019-03-21T17:40:21.308Z,24.84
2019-03-21T17:42:51.715Z,24.85
2019-03-21T17:45:21.899Z,24.85
2019-03-21T17:47:52.052Z,24.85
2019-03-21T17:50:23.271Z,24.86
2019-03-21T17:52:55.411Z,24.85
2019-03-21T17:55:25.253Z,24.85
2019-03-21T17:57:55.325Z,24.86
2019-03-21T18:00:26.620Z,24.87
2019-03-21T18:02:57.074Z,24.88
2019-03-21T18:05:27.200Z,24.89
2019-03-21T18:07:57.278Z,24.89
2019-03-21T18:10:32.138Z,24.89
2019-03-21T18:13:04.660Z,24.88
2019-03-21T18:15:34.729Z,24.86
2019-03-21T18:18:05.156Z,24.86
2019-03-21T18:20:36.175Z,24.85
2019-03-21T18:23:06.505Z,24.84
2019-03-21T18:25:36.623Z,24.86
2019-03-21T18:28:08.769Z,24.89
2019-03-21T18:30:38.660Z,24.89
2019-03-21T18:33:08.804Z,24.90
2019-03-21T18:35:38.842Z,24.92
2019-03-21T18:38:08.859Z,24.93
2019-03-21T18:40:40.034Z,24.95
2019-03-21T18:43:10.100Z,24.97
2019-03-21T18:45:40.212Z,24.98
2019-03-21T18:48:10.349Z,25.00
2019-03-21T18:50:40.385Z,25.01
2019-03-21T18:53:10.455Z,25.01
2019-03-21T18:55:40.466Z,25.02
2019-03-21T18:58:10.559Z,25.03
2019-03-21T19:00:40.849Z,25.03
2019-03-21T19:03:10.982Z,25.04
2019-03-21T19:05:41.221Z,25.05
2019-03-21T19:08:11.234Z,25.05
2019-03-21T19:10:41.352Z,25.06
2019-03-21T19:13:11.405Z,25.04
2019-03-21T19:15:41.427Z,25.03
2019-03-21T19:18:11.507Z,25.02
2019-03-21T19:20:41.630Z,25.03
2019-03-21T19:23:13.403Z,25.02
2019-03-21T19:25:43.484Z,25.03
2019-03-21T19:28:13.722Z,25.02
2019-03-21T19:30:43.810Z,25.00
2019-03-21T19:33:13.985Z,24.98
2019-03-21T19:35:46.785Z,24.97
2019-03-21T19:38:16.008Z,24.95
2019-03-21T19:40:46.082Z,24.94
2019-03-21T19:43:16.231Z,24.93
2019-03-21T19:45:46.237Z,24.92
2019-03-21T19:48:16.543Z,24.91
2019-03-21T19:50:46.595Z,24.91
2019-03-21T19:53:16.668Z,24.90
2019-03-21T19:55:46.769Z,24.89
2019-03-21T19:58:19.035Z,24.89
2019-03-21T20:03:18.506Z,24.89
2019-03-21T20:05:59.876Z,24.90
2019-03-21T20:08:21.555Z,24.91
2019-03-21T20:10:51.784Z,24.92
2019-03-21T20:13:21.856Z,24.92
2019-03-21T20:15:51.982Z,24.94
2019-03-21T20:18:22.061Z,24.95
2019-03-21T20:20:52.161Z,24.97
2019-03-21T20:23:22.290Z,24.97
2019-03-21T20:25:52.357Z,24.99
2019-03-21T20:28:22.439Z,25.00
2019-03-21T20:30:52.641Z,25.01
2019-03-21T20:33:22.824Z,25.01
2019-03-21T20:35:52.960Z,25.02
2019-03-21T20:38:23.084Z,25.01
2019-03-21T20:40:53.139Z,25.02
2019-03-21T20:43:23.320Z,25.02
2019-03-21T20:45:53.398Z,25.02
2019-03-21T20:48:31.073Z,25.01
2019-03-21T20:51:02.961Z,24.98
2019-03-21T20:53:33.061Z,24.97
2019-03-21T20:56:03.352Z,24.93
2019-03-21T20:58:33.468Z,24.92
2019-03-21T21:01:03.565Z,24.90
2019-03-21T21:03:34.915Z,24.89
2019-03-21T21:06:05.177Z,24.89
2019-03-21T21:08:35.224Z,24.89
2019-03-21T21:11:05.315Z,24.87
2019-03-21T21:13:35.505Z,24.87
2019-03-21T21:16:05.579Z,24.85
2019-03-21T21:18:35.701Z,24.85
2019-03-21T21:21:06.012Z,24.84
2019-03-21T21:23:36.073Z,24.85
2019-03-21T21:26:06.551Z,24.84
2019-03-21T21:28:36.615Z,24.84
2019-03-21T21:31:06.644Z,24.84
2019-03-21T21:33:36.800Z,24.84
2019-03-21T21:36:06.903Z,24.84
2019-03-21T21:38:36.955Z,24.83
2019-03-21T21:41:07.040Z,24.83
2019-03-21T21:43:38.136Z,24.82
2019-03-21T21:46:08.329Z,24.82
2019-03-21T21:48:38.478Z,24.81
2019-03-21T21:51:08.603Z,24.81
2019-03-21T21:53:38.690Z,24.82
2019-03-21T21:56:17.240Z,24.81
2019-03-21T21:58:40.648Z,24.80
2019-03-21T22:01:10.722Z,24.80
2019-03-21T22:03:40.881Z,24.79
2019-03-21T22:06:11.019Z,24.79
2019-03-21T22:08:41.189Z,24.79
2019-03-21T22:11:11.258Z,24.78
2019-03-21T22:13:41.345Z,24.79
2019-03-21T22:16:11.390Z,24.79
2019-03-21T22:18:41.479Z,24.79
2019-03-21T22:21:11.554Z,24.79
2019-03-21T22:23:41.625Z,24.79
2019-03-21T22:26:11.739Z,24.79
2019-03-21T22:28:41.831Z,24.78
2019-03-21T22:31:11.851Z,24.78
2019-03-21T22:33:41.965Z,24.78
2019-03-21T22:36:11.979Z,24.77
2019-03-21T22:38:42.020Z,24.76
2019-03-21T22:41:12.073Z,24.74
2019-03-21T22:43:42.147Z,24.75
2019-03-21T22:46:12.148Z,24.75
2019-03-21T22:48:42.347Z,24.74
2019-03-21T22:51:12.367Z,24.74
2019-03-21T22:53:42.484Z,24.74
2019-03-21T22:56:12.596Z,24.73
2019-03-21T22:58:43.451Z,24.73
2019-03-21T23:01:13.627Z,24.73
2019-03-21T23:03:44.586Z,24.73
2019-03-21T23:06:14.746Z,24.73
2019-03-21T23:08:44.885Z,24.73
2019-03-21T23:11:14.910Z,24.73
2019-03-21T23:13:45.090Z,24.73
2019-03-21T23:16:15.144Z,24.74
2019-03-21T23:18:45.182Z,24.75
2019-03-21T23:21:15.239Z,24.76
2019-03-21T23:23:45.300Z,24.75
2019-03-21T23:26:15.333Z,24.76
2019-03-21T23:28:45.366Z,24.76
2019-03-21T23:31:15.507Z,24.75
2019-03-21T23:33:45.592Z,24.74
2019-03-21T23:36:15.684Z,24.74
2019-03-21T23:38:45.760Z,24.75
2019-03-21T23:41:15.780Z,24.55
2019-03-21T23:43:45.870Z,24.74
2019-03-21T23:46:15.864Z,24.74
2019-03-21T23:48:45.938Z,24.74
2019-03-21T23:51:15.922Z,24.68
2019-03-21T23:53:45.939Z,24.73
2019-03-21T23:56:15.983Z,24.73
2019-03-21T23:58:46.007Z,24.74
